createdAt,value
2019-02-02T00:04:17.444Z,145.80
2019-02-02T00:09:19.906Z,135.73
2019-02-02T00:14:23.273Z,130.77
2019-02-02T00:19:26.163Z,131.13
2019-02-02T00:24:29.688Z,121.17
2019-02-02T00:29:32.885Z,147.87
2019-02-02T00:34:36.088Z,140.73
2019-02-02T00:39:39.607Z,132.87
2019-02-02T00:44:42.410Z,120.40
2019-02-02T00:49:45.976Z,122.70
2019-02-02T00:54:48.835Z,141.50
2019-02-02T00:59:51.957Z,125.30
2019-02-02T01:04:55.148Z,126.27
2019-02-02T01:09:57.810Z,131.13
2019-02-02T01:15:00.757Z,134.87
2019-02-02T01:20:04.683Z,139.53
2019-02-02T01:25:08.342Z,141.53
2019-02-02T01:30:12.994Z,148.30
2019-02-02T01:35:16.541Z,133.57
2019-02-02T01:40:20.161Z,130.87
2019-02-02T01:45:24.367Z,137.33
2019-02-02T01:50:28.021Z,141.63
2019-02-02T01:55:31.343Z,137.90
2019-02-02T02:00:34.820Z,141.03
2019-02-02T02:05:39.201Z,126.67
2019-02-02T02:10:42.679Z,129.77
2019-02-02T02:15:46.234Z,129.43
2019-02-02T02:20:49.728Z,141.27
2019-02-02T02:25:52.952Z,126.90
2019-02-02T02:30:55.936Z,136.53
2019-02-02T02:35:59.536Z,132.20
2019-02-02T02:41:02.387Z,131.37
2019-02-02T02:46:05.455Z,132.57
2019-02-02T02:51:08.396Z,138.27
2019-02-02T02:56:11.509Z,141.30
2019-02-02T03:01:15.049Z,152.50
2019-02-02T03:06:18.539Z,124.77
2019-02-02T03:11:21.437Z,138.07
2019-02-02T03:16:24.662Z,152.97
2019-02-02T03:21:27.967Z,135.07
2019-02-02T03:26:31.153Z,144.50
2019-02-02T03:31:34.328Z,146.20
2019-02-02T03:36:37.182Z,153.00
2019-02-02T03:41:40.441Z,151.60
2019-02-02T03:46:43.647Z,125.00
2019-02-02T03:51:46.819Z,151.10
2019-02-02T03:56:49.708Z,143.77
2019-02-02T04:01:52.987Z,139.03
2019-02-02T04:06:56.229Z,139.00
2019-02-02T04:11:59.033Z,145.03
2019-02-02T04:17:13.717Z,155.80
2019-02-02T04:22:18.254Z,155.20
2019-02-02T04:27:21.671Z,150.33
2019-02-02T04:32:24.879Z,152.53
2019-02-02T04:37:28.113Z,141.90
2019-02-02T04:42:31.303Z,155.80
2019-02-02T04:47:34.209Z,152.57
2019-02-02T04:52:37.512Z,152.73
2019-02-02T04:57:40.732Z,145.27
2019-02-02T05:02:44.312Z,154.63
2019-02-02T05:07:47.460Z,155.10
2019-02-02T05:12:50.323Z,153.70
2019-02-02T05:17:53.461Z,161.93
2019-02-02T05:22:55.963Z,151.97
2019-02-02T05:27:59.172Z,144.77
2019-02-02T05:33:02.382Z,159.57
2019-02-02T05:38:05.893Z,162.40
2019-02-02T05:43:08.799Z,156.37
2019-02-02T05:48:12.417Z,146.83
2019-02-02T05:53:15.625Z,147.00
2019-02-02T05:58:18.525Z,153.87
2019-02-02T06:03:21.771Z,162.80
2019-02-02T06:08:24.919Z,161.17
2019-02-02T06:13:27.434Z,154.37
2019-02-02T06:18:30.952Z,180.77
2019-02-02T06:23:34.161Z,155.70
2019-02-02T06:28:38.856Z,170.97
2019-02-02T06:33:42.093Z,170.17
2019-02-02T06:38:45.325Z,154.47
2019-02-02T06:43:47.882Z,157.43
2019-02-02T06:48:51.393Z,170.33
2019-02-02T06:53:54.964Z,163.53
2019-02-02T06:58:57.859Z,165.47
2019-02-02T07:04:01.086Z,158.20
2019-02-02T07:09:07.238Z,167.03
2019-02-02T07:14:10.784Z,162.73
2019-02-02T07:19:16.660Z,173.13
2019-02-02T07:24:19.992Z,166.20
2019-02-02T07:29:24.292Z,169.77
2019-02-02T07:34:27.779Z,184.47
2019-02-02T07:39:31.099Z,172.17
2019-02-02T07:44:34.036Z,185.47
2019-02-02T07:49:37.219Z,184.43
2019-02-02T07:54:40.240Z,196.10
2019-02-02T07:59:43.435Z,177.50
2019-02-02T08:04:45.964Z,188.57
2019-02-02T08:09:48.850Z,188.73
2019-02-02T08:14:54.033Z,194.70
2019-02-02T08:19:57.398Z,185.00
2019-02-02T08:25:01.044Z,199.77
2019-02-02T08:30:05.214Z,192.47
2019-02-02T08:35:08.194Z,197.70
2019-02-02T08:40:13.776Z,183.73
2019-02-02T08:45:17.345Z,203.07
2019-02-02T08:50:28.446Z,186.93
2019-02-02T08:55:31.673Z,180.27
2019-02-02T09:00:35.423Z,189.37
2019-02-02T09:05:38.571Z,185.50
2019-02-02T09:10:41.799Z,178.27
2019-02-02T09:15:44.702Z,180.90
2019-02-02T09:20:48.340Z,193.20
2019-02-02T09:25:51.555Z,160.97
2019-02-02T09:30:54.781Z,182.57
2019-02-02T09:35:57.994Z,174.50
2019-02-02T09:41:00.872Z,190.43
2019-02-02T09:46:04.759Z,178.90
2019-02-02T09:51:07.600Z,175.40
2019-02-02T09:56:11.477Z,180.17
2019-02-02T10:01:14.006Z,160.47
2019-02-02T10:06:17.225Z,168.03
2019-02-02T10:11:20.802Z,167.43
2019-02-02T10:16:24.346Z,166.07
2019-02-02T10:21:26.908Z,163.63
2019-02-02T10:26:30.105Z,159.57
2019-02-02T10:31:39.763Z,154.67
2019-02-02T10:36:38.372Z,139.43
2019-02-02T10:41:43.335Z,147.57
2019-02-02T10:46:46.593Z,141.50
2019-02-02T10:51:49.890Z,142.77
2019-02-02T10:56:53.212Z,157.90
2019-02-02T11:01:56.258Z,144.93
2019-02-02T11:06:59.629Z,143.07
2019-02-02T11:12:02.807Z,160.43
2019-02-02T11:17:06.079Z,151.13
2019-02-02T11:22:10.707Z,152.33
2019-02-02T11:27:14.284Z,164.90
2019-02-02T11:32:17.726Z,156.17
2019-02-02T11:37:20.701Z,146.43
2019-02-02T11:42:23.653Z,160.63
2019-02-02T11:47:26.944Z,163.27
2019-02-02T11:52:30.525Z,149.23
2019-02-02T11:57:33.779Z,143.73
2019-02-02T12:02:48.846Z,166.40
2019-02-02T12:07:42.611Z,150.93
2019-02-02T12:12:45.837Z,144.30
2019-02-02T12:17:49.382Z,157.20
2019-02-02T12:22:52.743Z,160.07
2019-02-02T12:27:56.414Z,145.33
2019-02-02T12:33:03.160Z,138.50
2019-02-02T12:38:06.317Z,144.63
2019-02-02T12:43:11.615Z,144.50
2019-02-02T12:48:14.881Z,145.67
2019-02-02T12:53:18.369Z,139.63
2019-02-02T12:58:21.696Z,136.73
2019-02-02T13:03:25.012Z,132.03
2019-02-02T13:08:27.928Z,120.27
2019-02-02T13:13:31.107Z,142.20
2019-02-02T13:18:34.049Z,127.30
2019-02-02T13:23:37.715Z,115.33
2019-02-02T13:28:40.979Z,128.87
2019-02-02T13:33:44.281Z,139.77
2019-02-02T13:38:47.603Z,141.13
2019-02-02T13:43:50.162Z,145.60
2019-02-02T13:48:53.785Z,158.20
2019-02-02T13:53:57.435Z,139.00
2019-02-02T13:59:00.173Z,163.30
2019-02-02T14:04:02.384Z,150.70
2019-02-02T14:09:08.091Z,153.40
2019-02-02T14:14:11.101Z,156.80
2019-02-02T14:19:14.416Z,151.03
2019-02-02T14:24:17.750Z,136.43
2019-02-02T14:29:21.026Z,134.67
2019-02-02T14:34:23.950Z,132.07
2019-02-02T14:39:28.798Z,126.20
2019-02-02T14:44:32.094Z,125.30
2019-02-02T14:49:35.361Z,129.60
2019-02-02T14:54:38.964Z,131.07
2019-02-02T14:59:42.036Z,125.13
2019-02-02T15:04:45.797Z,129.67
2019-02-02T15:09:49.220Z,141.17
2019-02-02T15:14:52.476Z,142.30
2019-02-02T15:19:56.695Z,144.70
2019-02-02T15:24:59.720Z,125.47
2019-02-02T15:30:03.996Z,123.37
2019-02-02T15:35:07.078Z,129.80
2019-02-02T15:40:12.331Z,136.13
2019-02-02T15:45:17.162Z,127.27
2019-02-02T15:50:21.771Z,142.30
2019-02-02T15:55:25.399Z,140.47
2019-02-02T16:00:30.523Z,141.03
2019-02-02T16:05:34.988Z,144.87
2019-02-02T16:10:38.314Z,143.80
2019-02-02T16:15:41.540Z,137.97
2019-02-02T16:20:44.604Z,153.53
2019-02-02T16:25:50.140Z,148.17
2019-02-02T16:30:52.973Z,138.47
2019-02-02T16:35:56.343Z,149.97
2019-02-02T16:40:59.548Z,137.70
2019-02-02T16:46:03.754Z,143.33
2019-02-02T16:51:11.020Z,157.23
2019-02-02T16:56:17.126Z,139.40
2019-02-02T17:01:20.366Z,130.67
2019-02-02T17:06:23.721Z,136.00
2019-02-02T17:11:27.070Z,133.10
2019-02-02T17:16:29.674Z,137.83
2019-02-02T17:21:32.594Z,138.30
2019-02-02T17:26:35.526Z,144.57
2019-02-02T17:31:38.398Z,122.13
2019-02-02T17:36:42.677Z,121.27
2019-02-02T17:41:46.365Z,120.33
2019-02-02T17:46:49.937Z,122.67
2019-02-02T17:51:53.506Z,123.93
2019-02-02T17:56:57.854Z,118.53
2019-02-02T18:02:01.454Z,122.53
2019-02-02T18:07:04.930Z,108.10
2019-02-02T18:12:07.779Z,105.10
2019-02-02T18:17:11.227Z,109.13
2019-02-02T18:22:14.600Z,120.93
2019-02-02T18:27:17.903Z,113.80
2019-02-02T18:32:21.547Z,103.43
2019-02-02T18:37:24.887Z,95.87
2019-02-02T18:42:28.080Z,103.57
2019-02-02T18:47:31.720Z,99.57
2019-02-02T18:52:35.352Z,103.17
2019-02-02T18:57:38.924Z,96.57
2019-02-02T19:02:42.547Z,98.33
2019-02-02T19:07:46.056Z,92.20
2019-02-02T19:12:49.395Z,99.17
2019-02-02T19:17:53.135Z,93.17
2019-02-02T19:22:57.348Z,102.37
2019-02-02T19:28:00.581Z,103.93
2019-02-02T19:33:06.339Z,127.93
2019-02-02T19:38:10.130Z,134.23
2019-02-02T19:43:14.199Z,118.77
2019-02-02T19:48:18.601Z,126.60
2019-02-02T19:53:23.440Z,116.07
2019-02-02T19:58:28.117Z,112.30
2019-02-02T20:03:31.788Z,106.57
2019-02-02T20:08:36.075Z,108.50
2019-02-02T20:13:42.658Z,109.50
2019-02-02T20:18:47.105Z,107.60
2019-02-02T20:23:52.643Z,100.40
2019-02-02T20:28:57.640Z,111.60
2019-02-02T20:34:02.578Z,103.23
2019-02-02T20:39:08.023Z,115.80
2019-02-02T20:44:12.882Z,105.27
2019-02-02T20:49:16.256Z,106.73
2019-02-02T20:54:20.573Z,126.53
2019-02-02T20:59:25.231Z,122.10
2019-02-02T21:04:29.329Z,109.23
2019-02-02T21:09:34.441Z,101.57
2019-02-02T21:14:38.677Z,107.83
2019-02-02T21:19:42.340Z,115.57
2019-02-02T21:24:45.868Z,121.17
2019-02-02T21:29:49.971Z,112.27
2019-02-02T21:34:53.316Z,90.37
2019-02-02T21:39:56.570Z,91.70
2019-02-02T21:45:00.460Z,90.10
2019-02-02T21:50:05.107Z,90.37
2019-02-02T21:55:10.353Z,89.53
2019-02-02T22:00:16.802Z,92.70
2019-02-02T22:05:19.923Z,92.17
2019-02-02T22:10:23.402Z,83.63
2019-02-02T22:15:26.874Z,92.43
2019-02-02T22:20:30.121Z,95.23
2019-02-02T22:25:33.540Z,92.53
2019-02-02T22:30:37.626Z,93.77
2019-02-02T22:35:40.944Z,97.63
2019-02-02T22:40:44.517Z,92.03
2019-02-02T22:45:47.748Z,91.13
2019-02-02T22:50:50.970Z,85.57
2019-02-02T22:55:53.935Z,97.87
2019-02-02T23:01:10.569Z,95.20
2019-02-02T23:06:50.259Z,88.90
2019-02-02T23:12:36.856Z,107.40
2019-02-02T23:17:40.375Z,102.13
2019-02-02T23:22:44.589Z,90.13
2019-02-02T23:27:47.820Z,111.13
2019-02-02T23:32:51.794Z,96.97
2019-02-02T23:37:55.597Z,103.33
2019-02-02T23:42:58.851Z,100.40
2019-02-02T23:48:02.160Z,106.07
2019-02-02T23:53:05.478Z,122.67
2019-02-02T23:58:09.078Z,111.20
